Language: 


Des rapports , des résumés tant et plus, au choix de chacun....


Données Historiques de Météogheer
Journalier Rapport pour Mars 3, 2017 Unitée:  Les deux    Impériale   Métrique
Suivant Jour »
Journalier Hebdomadaire Mensuel Annuel Sur mesure
  Max: Min: Moyenne:
Température: 54 °F /  12.2 °C 37.8 °F /  3.2 °C 46 °F /  7.8 °C
Point de rosée: 46.4 °F /  8.0 °C 33.6 °F /  0.9 °C 40.8 °F /  4.9 °C
Humidité: 91% 72% 82%
Vent: 11mph /  17.7km/h - 4.5mph /  7.3km/h
Rafales: 14.8mph /  23.8km/h - -
Vent- - SSE
Pression: 29.9 in /  1014.1 hPa 29.3 in /  992.1 hPa -
Pluie: 0.06 in /  1.5 mm    
Historical Graphs
 
 
Données tabulaires pour Mars 3, 2017
Heure Température Point de rosée Pression Vent Vent Rafales Humidité Pluie Taux (Horaire) Conditions
00:02 38.1 °F /  3.4 °C 34.2 °F /  1.2 °C 29.9in /  1014.1hPa Calm   4.7mph /  7.6km/h 85% 0in /  0.0mm
00:07 38.5 °F /  3.6 °C 34.2 °F /  1.2 °C 29.9in /  1014.1hPa Calm   4.7mph /  7.6km/h 85% 0in /  0.0mm
00:12 38.1 °F /  3.4 °C 34.2 °F /  1.2 °C 29.9in /  1014.1hPa Calm   2.2mph /  3.5km/h 85% 0in /  0.0mm
00:17 37.9 °F /  3.3 °C 34 °F /  1.1 °C 29.9in /  1014.1hPa Calm   2.5mph /  4.0km/h 85% 0in /  0.0mm
00:22 37.8 °F /  3.2 °C 33.6 °F /  0.9 °C 29.9in /  1013.1hPa Calm   2.5mph /  4.0km/h 85% 0in /  0.0mm
00:27 37.8 °F /  3.2 °C 34 °F /  1.1 °C 29.9in /  1013.1hPa Calm   1.6mph /  2.6km/h 86% 0in /  0.0mm
00:32 37.8 °F /  3.2 °C 34 °F /  1.1 °C 29.9in /  1013.1hPa Calm   1.6mph /  2.6km/h 86% 0in /  0.0mm
00:37 37.8 °F /  3.2 °C 34 °F /  1.1 °C 29.9in /  1013.1hPa Calm   2.5mph /  4.0km/h 86% 0in /  0.0mm
00:42 37.8 °F /  3.2 °C 34 °F /  1.1 °C 29.9in /  1013.1hPa Calm   2.5mph /  4.0km/h 86% 0in /  0.0mm
00:47 37.9 °F /  3.3 °C 34.2 °F /  1.2 °C 29.9in /  1013.1hPa South 1.1mph /  1.8km/h 4mph /  6.4km/h 86% 0in /  0.0mm
00:52 38.1 °F /  3.4 °C 34.3 °F /  1.3 °C 29.9in /  1013.1hPa South 3.4mph /  5.5km/h 4mph /  6.4km/h 86% 0in /  0.0mm
00:57 38.5 °F /  3.6 °C 34.9 °F /  1.6 °C 29.9in /  1013.1hPa SSW 2.2mph /  3.5km/h 3.8mph /  6.1km/h 87% 0in /  0.0mm
01:02 38.5 °F /  3.6 °C 35.1 °F /  1.7 °C 29.9in /  1013.1hPa Calm   3.8mph /  6.1km/h 87% 0in /  0.0mm
01:07 38.5 °F /  3.6 °C 35.1 °F /  1.7 °C 29.9in /  1013.1hPa South 3.4mph /  5.5km/h 6.3mph /  10.1km/h 87% 0in /  0.0mm
01:12 38.7 °F /  3.7 °C 35.2 °F /  1.8 °C 29.9in /  1013.1hPa Calm   6.3mph /  10.1km/h 87% 0in /  0.0mm
01:17 38.8 °F /  3.8 °C 35.2 °F /  1.8 °C 29.9in /  1013.1hPa Calm   3.4mph /  5.5km/h 87% 0in /  0.0mm
01:22 39 °F /  3.9 °C 35.4 °F /  1.9 °C 29.9in /  1013.1hPa Calm   3.1mph /  5.0km/h 87% 0in /  0.0mm
01:27 39 °F /  3.9 °C 35.4 °F /  1.9 °C 29.9in /  1013.1hPa South 2.5mph /  4.0km/h 3.6mph /  5.8km/h 87% 0in /  0.0mm
01:32 39 °F /  3.9 °C 35.4 °F /  1.9 °C 29.9in /  1013.1hPa Calm   3.6mph /  5.8km/h 87% 0in /  0.0mm
01:37 39 °F /  3.9 °C 35.4 °F /  1.9 °C 29.9in /  1013.1hPa South 3.1mph /  5.0km/h 3.6mph /  5.8km/h 87% 0in /  0.0mm
01:42 39 °F /  3.9 °C 35.4 °F /  1.9 °C 29.9in /  1013.1hPa South 1.6mph /  2.6km/h 4.3mph /  6.9km/h 87% 0in /  0.0mm
01:47 39.2 °F /  4.0 °C 35.8 °F /  2.1 °C 29.9in /  1013.1hPa Calm   4.5mph /  7.2km/h 87% 0in /  0.0mm
01:52 39.6 °F /  4.2 °C 36 °F /  2.2 °C 29.9in /  1013.1hPa Calm   4.5mph /  7.2km/h 87% 0in /  0.0mm
01:57 39.6 °F /  4.2 °C 36 °F /  2.2 °C 29.9in /  1013.1hPa South 1.1mph /  1.8km/h 3.6mph /  5.8km/h 87% 0in /  0.0mm
02:02 39.9 °F /  4.4 °C 36.3 °F /  2.4 °C 29.9in /  1013.1hPa South 2.5mph /  4.0km/h 2.9mph /  4.7km/h 87% 0in /  0.0mm
02:07 40.1 °F /  4.5 °C 36.7 °F /  2.6 °C 29.9in /  1012.1hPa Calm   6mph /  9.7km/h 87% 0in /  0.0mm
02:12 40.3 °F /  4.6 °C 36.7 °F /  2.6 °C 29.9in /  1012.1hPa SSE 2mph /  3.2km/h 6mph /  9.7km/h 87% 0in /  0.0mm
02:17 40.5 °F /  4.7 °C 36.9 °F /  2.7 °C 29.9in /  1012.1hPa SSE 4.3mph /  6.9km/h 6.5mph /  10.5km/h 87% 0in /  0.0mm
02:22 40.6 °F /  4.8 °C 37 °F /  2.8 °C 29.9in /  1012.1hPa South 0.9mph /  1.4km/h 7.2mph /  11.6km/h 87% 0in /  0.0mm
02:27 40.6 °F /  4.8 °C 36.9 °F /  2.7 °C 29.9in /  1012.1hPa SSE 5.4mph /  8.7km/h 7.2mph /  11.6km/h 86% 0in /  0.0mm
02:32 40.6 °F /  4.8 °C 36.9 °F /  2.7 °C 29.9in /  1012.1hPa SSE 3.6mph /  5.8km/h 5.4mph /  8.7km/h 86% 0in /  0.0mm
02:37 40.6 °F /  4.8 °C 36.9 °F /  2.7 °C 29.9in /  1011.1hPa Calm   5.8mph /  9.3km/h 86% 0in /  0.0mm
02:43 40.6 °F /  4.8 °C 36.5 °F /  2.5 °C 29.9in /  1011.1hPa SSE 2mph /  3.2km/h 6.3mph /  10.1km/h 85% 0in /  0.0mm
02:48 40.6 °F /  4.8 °C 36.5 °F /  2.5 °C 29.9in /  1011.1hPa South 3.4mph /  5.5km/h 7.6mph /  12.2km/h 85% 0in /  0.0mm
02:53 40.8 °F /  4.9 °C 36.7 °F /  2.6 °C 29.8in /  1010.0hPa Calm   7.6mph /  12.2km/h 85% 0in /  0.0mm
02:57 40.6 °F /  4.8 °C 36.5 °F /  2.5 °C 29.8in /  1010.0hPa South 4.9mph /  7.9km/h 6.5mph /  10.5km/h 85% 0in /  0.0mm
03:03 40.5 °F /  4.7 °C 36.3 °F /  2.4 °C 29.8in /  1010.0hPa South 2.7mph /  4.3km/h 6.5mph /  10.5km/h 85% 0in /  0.0mm
03:08 40.5 °F /  4.7 °C 36 °F /  2.2 °C 29.9in /  1011.1hPa South 3.4mph /  5.5km/h 5.4mph /  8.7km/h 84% 0in /  0.0mm
03:13 40.3 °F /  4.6 °C 35.8 °F /  2.1 °C 29.9in /  1011.1hPa SSE 2.5mph /  4.0km/h 5.4mph /  8.7km/h 84% 0in /  0.0mm
03:18 40.1 °F /  4.5 °C 35.8 °F /  2.1 °C 29.9in /  1011.1hPa SSE 3.1mph /  5.0km/h 5.4mph /  8.7km/h 84% 0in /  0.0mm
03:23 40.1 °F /  4.5 °C 35.8 °F /  2.1 °C 29.9in /  1011.1hPa Calm   6.7mph /  10.8km/h 84% 0in /  0.0mm
03:28 40.1 °F /  4.5 °C 35.8 °F /  2.1 °C 29.9in /  1011.1hPa Calm   6.7mph /  10.8km/h 84% 0in /  0.0mm
03:33 39.7 °F /  4.3 °C 35.2 °F /  1.8 °C 29.9in /  1011.1hPa SSE 3.8mph /  6.1km/h 3.8mph /  6.1km/h 84% 0in /  0.0mm
03:38 39.7 °F /  4.3 °C 35.6 °F /  2.0 °C 29.8in /  1010.0hPa SE 3.1mph /  5.0km/h 4mph /  6.4km/h 85% 0in /  0.0mm
03:43 39.7 °F /  4.3 °C 35.6 °F /  2.0 °C 29.8in /  1010.0hPa South 5.8mph /  9.3km/h 5.8mph /  9.3km/h 85% 0in /  0.0mm
03:48 39.7 °F /  4.3 °C 35.6 °F /  2.0 °C 29.8in /  1010.0hPa SE 3.8mph /  6.1km/h 5.8mph /  9.3km/h 85% 0in /  0.0mm
03:53 39.6 °F /  4.2 °C 35.4 °F /  1.9 °C 29.8in /  1010.0hPa Calm   3.8mph /  6.1km/h 85% 0in /  0.0mm
03:58 39.6 °F /  4.2 °C 35.4 °F /  1.9 °C 29.8in /  1010.0hPa Calm   4.7mph /  7.6km/h 85% 0in /  0.0mm
04:03 39.2 °F /  4.0 °C 35.1 °F /  1.7 °C 29.8in /  1010.0hPa Calm   4.7mph /  7.6km/h 85% 0in /  0.0mm
04:08 39 °F /  3.9 °C 34.9 °F /  1.6 °C 29.8in /  1009.0hPa ESE 4mph /  6.4km/h 4mph /  6.4km/h 85% 0in /  0.0mm
04:13 39 °F /  3.9 °C 34.9 °F /  1.6 °C 29.8in /  1009.0hPa Calm   4mph /  6.4km/h 85% 0in /  0.0mm
04:18 38.8 °F /  3.8 °C 35.1 °F /  1.7 °C 29.8in /  1009.0hPa Calm   4mph /  6.4km/h 86% 0in /  0.0mm
04:23 38.7 °F /  3.7 °C 34.9 °F /  1.6 °C 29.8in /  1009.0hPa Calm   4mph /  6.4km/h 86% 0in /  0.0mm
04:28 38.5 °F /  3.6 °C 34.7 °F /  1.5 °C 29.8in /  1009.0hPa Calm   3.4mph /  5.5km/h 86% 0in /  0.0mm
04:33 38.5 °F /  3.6 °C 34.5 °F /  1.4 °C 29.8in /  1009.0hPa Calm     86% 0in /  0.0mm
04:38 37.9 °F /  3.3 °C 34.2 °F /  1.2 °C 29.8in /  1009.0hPa Calm     86% 0in /  0.0mm
04:43 37.8 °F /  3.2 °C 34 °F /  1.1 °C 29.8in /  1009.0hPa Calm     86% 0in /  0.0mm
04:48 37.8 °F /  3.2 °C 34 °F /  1.1 °C 29.8in /  1009.0hPa Calm   3.8mph /  6.1km/h 86% 0in /  0.0mm
04:53 37.8 °F /  3.2 °C 34.3 °F /  1.3 °C 29.8in /  1009.0hPa Calm   4mph /  6.4km/h 87% 0in /  0.0mm
04:58 37.8 °F /  3.2 °C 34.3 °F /  1.3 °C 29.8in /  1009.0hPa Calm   4mph /  6.4km/h 87% 0in /  0.0mm
05:03 37.9 °F /  3.3 °C 34.5 °F /  1.4 °C 29.8in /  1009.0hPa Calm   4.7mph /  7.6km/h 87% 0in /  0.0mm
05:08 37.9 °F /  3.3 °C 34.9 °F /  1.6 °C 29.8in /  1009.0hPa SE 1.3mph /  2.1km/h 4.7mph /  7.6km/h 88% 0in /  0.0mm
05:13 37.9 °F /  3.3 °C 34.9 °F /  1.6 °C 29.8in /  1009.0hPa Calm   2.7mph /  4.3km/h 88% 0in /  0.0mm
05:18 37.8 °F /  3.2 °C 34.5 °F /  1.4 °C 29.8in /  1009.0hPa Calm   1.3mph /  2.1km/h 88% 0in /  0.0mm
05:23 37.9 °F /  3.3 °C 34.9 °F /  1.6 °C 29.8in /  1009.0hPa Calm   2.9mph /  4.7km/h 88% 0in /  0.0mm
05:28 37.9 °F /  3.3 °C 35.1 °F /  1.7 °C 29.8in /  1009.0hPa Calm   4.7mph /  7.6km/h 89% 0in /  0.0mm
05:33 38.1 °F /  3.4 °C 35.2 °F /  1.8 °C 29.8in /  1009.0hPa ESE 2.9mph /  4.7km/h 4.7mph /  7.6km/h 89% 0in /  0.0mm
05:38 38.5 °F /  3.6 °C 35.4 °F /  1.9 °C 29.8in /  1010.0hPa Calm   3.8mph /  6.1km/h 89% 0in /  0.0mm
05:43 38.5 °F /  3.6 °C 35.6 °F /  2.0 °C 29.8in /  1010.0hPa SE 1.3mph /  2.1km/h 4.3mph /  6.9km/h 89% 0in /  0.0mm
05:48 38.5 °F /  3.6 °C 35.8 °F /  2.1 °C 29.8in /  1010.0hPa ESE 3.1mph /  5.0km/h 4.3mph /  6.9km/h 90% 0in /  0.0mm
05:53 38.7 °F /  3.7 °C 36 °F /  2.2 °C 29.8in /  1009.0hPa Calm   5.6mph /  9.0km/h 90% 0in /  0.0mm
05:58 39 °F /  3.9 °C 36.3 °F /  2.4 °C 29.8in /  1009.0hPa SE 4.9mph /  7.9km/h 5.6mph /  9.0km/h 90% 0in /  0.0mm
06:03 39 °F /  3.9 °C 36.3 °F /  2.4 °C 29.8in /  1009.0hPa ESE 3.8mph /  6.1km/h 5.8mph /  9.3km/h 90% 0in /  0.0mm
06:08 39.2 °F /  4.0 °C 36.5 °F /  2.5 °C 29.8in /  1008.0hPa SE 1.3mph /  2.1km/h 5.8mph /  9.3km/h 90% 0in /  0.0mm
06:13 39.2 °F /  4.0 °C 36.5 °F /  2.5 °C 29.8in /  1008.0hPa SE 2.9mph /  4.7km/h 6.3mph /  10.1km/h 90% 0in /  0.0mm
06:18 39.2 °F /  4.0 °C 36.3 °F /  2.4 °C 29.8in /  1008.0hPa SE 4.3mph /  6.9km/h 6.3mph /  10.1km/h 89% 0in /  0.0mm
06:23 39.6 °F /  4.2 °C 36.7 °F /  2.6 °C 29.7in /  1007.0hPa South 5.6mph /  9.0km/h 5.6mph /  9.0km/h 89% 0in /  0.0mm
06:28 39.6 °F /  4.2 °C 36.7 °F /  2.6 °C 29.7in /  1007.0hPa SSE 4mph /  6.4km/h 7.6mph /  12.2km/h 89% 0in /  0.0mm
06:33 39.7 °F /  4.3 °C 36.9 °F /  2.7 °C 29.7in /  1007.0hPa ESE 3.4mph /  5.5km/h 7.6mph /  12.2km/h 89% 0in /  0.0mm
06:38 39.7 °F /  4.3 °C 36.9 °F /  2.7 °C 29.7in /  1007.0hPa ESE 3.4mph /  5.5km/h 6mph /  9.7km/h 89% 0in /  0.0mm
06:43 39.7 °F /  4.3 °C 36.9 °F /  2.7 °C 29.7in /  1007.0hPa ESE 3.1mph /  5.0km/h 5.6mph /  9.0km/h 89% 0in /  0.0mm
06:48 39.7 °F /  4.3 °C 36.9 °F /  2.7 °C 29.7in /  1007.0hPa SE 2.9mph /  4.7km/h 4mph /  6.4km/h 89% 0in /  0.0mm
06:53 39.9 °F /  4.4 °C 37 °F /  2.8 °C 29.7in /  1006.0hPa SE 2.2mph /  3.5km/h 4.3mph /  6.9km/h 89% 0in /  0.0mm
06:58 40.1 °F /  4.5 °C 37 °F /  2.8 °C 29.7in /  1006.0hPa Calm   4.9mph /  7.9km/h 89% 0in /  0.0mm
07:03 40.3 °F /  4.6 °C 37.2 °F /  2.9 °C 29.7in /  1006.0hPa SSE 3.4mph /  5.5km/h 6mph /  9.7km/h 89% 0in /  0.0mm
07:08 40.5 °F /  4.7 °C 37.6 °F /  3.1 °C 29.7in /  1006.0hPa SSE 2.5mph /  4.0km/h 6mph /  9.7km/h 89% 0in /  0.0mm
07:13 40.8 °F /  4.9 °C 37.6 °F /  3.1 °C 29.7in /  1006.0hPa SSE 5.6mph /  9.0km/h 6.3mph /  10.1km/h 88% 0in /  0.0mm
07:18 40.8 °F /  4.9 °C 37.6 °F /  3.1 °C 29.7in /  1006.0hPa SSE 2.2mph /  3.5km/h 6.3mph /  10.1km/h 88% 0in /  0.0mm
07:23 41 °F /  5.0 °C 37.8 °F /  3.2 °C 29.7in /  1007.0hPa SSE 3.8mph /  6.1km/h 6.5mph /  10.5km/h 88% 0in /  0.0mm
07:28 41.4 °F /  5.2 °C 38.1 °F /  3.4 °C 29.7in /  1007.0hPa ESE 6.3mph /  10.1km/h 6.5mph /  10.5km/h 88% 0in /  0.0mm
07:33 41.4 °F /  5.2 °C 37.8 °F /  3.2 °C 29.7in /  1007.0hPa SSE 6.5mph /  10.5km/h 7.8mph /  12.6km/h 87% 0in /  0.0mm
07:38 41.5 °F /  5.3 °C 37.9 °F /  3.3 °C 29.7in /  1007.0hPa SE 2.7mph /  4.3km/h 10.5mph /  16.9km/h 87% 0in /  0.0mm
07:43 41.9 °F /  5.5 °C 38.3 °F /  3.5 °C 29.7in /  1007.0hPa SSW 8.5mph /  13.7km/h 10.5mph /  16.9km/h 87% 0in /  0.0mm
07:48 41.9 °F /  5.5 °C 37.9 °F /  3.3 °C 29.7in /  1007.0hPa SSE 7.8mph /  12.6km/h 12.1mph /  19.5km/h 86% 0in /  0.0mm
07:53 42.1 °F /  5.6 °C 37.9 °F /  3.3 °C 29.7in /  1007.0hPa South 5.8mph /  9.3km/h 12.1mph /  19.5km/h 85% 0in /  0.0mm
07:58 42.3 °F /  5.7 °C 37.9 °F /  3.3 °C 29.7in /  1007.0hPa SE 2.9mph /  4.7km/h 8.5mph /  13.7km/h 85% 0in /  0.0mm
08:03 42.3 °F /  5.7 °C 37.8 °F /  3.2 °C 29.7in /  1007.0hPa SSE 7.8mph /  12.6km/h 8.5mph /  13.7km/h 84% 0in /  0.0mm
08:08 42.4 °F /  5.8 °C 37.6 °F /  3.1 °C 29.7in /  1006.0hPa South 8.5mph /  13.7km/h 9.6mph /  15.4km/h 83% 0in /  0.0mm
08:13 42.6 °F /  5.9 °C 37.6 °F /  3.1 °C 29.7in /  1006.0hPa SE 9.6mph /  15.4km/h 12.3mph /  19.8km/h 82% 0in /  0.0mm
08:18 42.6 °F /  5.9 °C 37.2 °F /  2.9 °C 29.7in /  1006.0hPa SSE 4.3mph /  6.9km/h 12.3mph /  19.8km/h 81% 0in /  0.0mm
08:23 42.8 °F /  6.0 °C 37 °F /  2.8 °C 29.7in /  1006.0hPa ESE 6.3mph /  10.1km/h 10.5mph /  16.9km/h 80% 0in /  0.0mm
08:28 42.8 °F /  6.0 °C 37.2 °F /  2.9 °C 29.7in /  1006.0hPa SSE 3.8mph /  6.1km/h 10.5mph /  16.9km/h 81% 0in /  0.0mm
08:33 42.8 °F /  6.0 °C 37 °F /  2.8 °C 29.7in /  1006.0hPa SE 10.7mph /  17.2km/h 10.7mph /  17.2km/h 80% 0in /  0.0mm
08:38 43 °F /  6.1 °C 37.2 °F /  2.9 °C 29.7in /  1006.0hPa ESE 3.6mph /  5.8km/h 11.4mph /  18.3km/h 80% 0in /  0.0mm
08:43 43 °F /  6.1 °C 36.9 °F /  2.7 °C 29.7in /  1006.0hPa SSE 6mph /  9.7km/h 11.4mph /  18.3km/h 79% 0in /  0.0mm
08:48 43 °F /  6.1 °C 36.9 °F /  2.7 °C 29.7in /  1006.0hPa SE 4mph /  6.4km/h 10.5mph /  16.9km/h 79% 0in /  0.0mm
08:53 43 °F /  6.1 °C 36.9 °F /  2.7 °C 29.7in /  1005.0hPa SE 8.1mph /  13.0km/h 10.5mph /  16.9km/h 79% 0in /  0.0mm
08:58 43 °F /  6.1 °C 37.2 °F /  2.9 °C 29.7in /  1005.0hPa SSE 6.3mph /  10.1km/h 10.3mph /  16.6km/h 80% 0in /  0.0mm
09:03 43 °F /  6.1 °C 37.2 °F /  2.9 °C 29.7in /  1005.0hPa SSE 3.6mph /  5.8km/h 10.7mph /  17.2km/h 80% 0in /  0.0mm
09:08 43 °F /  6.1 °C 37.2 °F /  2.9 °C 29.7in /  1005.0hPa SE 3.4mph /  5.5km/h 10.7mph /  17.2km/h 80% 0in /  0.0mm
09:13 43 °F /  6.1 °C 37.2 °F /  2.9 °C 29.7in /  1005.0hPa SE 6mph /  9.7km/h 9.6mph /  15.4km/h 80% 0in /  0.0mm
09:18 43 °F /  6.1 °C 37.6 °F /  3.1 °C 29.7in /  1005.0hPa SE 4.3mph /  6.9km/h 10.5mph /  16.9km/h 81% 0in /  0.0mm
09:23 43 °F /  6.1 °C 37.6 °F /  3.1 °C 29.7in /  1005.0hPa SSE 7.6mph /  12.2km/h 10.5mph /  16.9km/h 81% 0in /  0.0mm
09:28 43 °F /  6.1 °C 37.6 °F /  3.1 °C 29.7in /  1005.0hPa SE 8.1mph /  13.0km/h 10.1mph /  16.3km/h 81% 0in /  0.0mm
09:33 43 °F /  6.1 °C 37.8 °F /  3.2 °C 29.7in /  1005.0hPa SE 7.4mph /  11.9km/h 10.1mph /  16.3km/h 82% 0in /  0.0mm
09:38 43.2 °F /  6.2 °C 37.8 °F /  3.2 °C 29.7in /  1005.0hPa SSE 7.8mph /  12.6km/h 11.2mph /  18.0km/h 81% 0in /  0.0mm
09:43 43.3 °F /  6.3 °C 37.9 °F /  3.3 °C 29.7in /  1005.0hPa SE 6.5mph /  10.5km/h 11.2mph /  18.0km/h 81% 0in /  0.0mm
09:48 43.3 °F /  6.3 °C 37.9 °F /  3.3 °C 29.7in /  1005.0hPa SE 7.6mph /  12.2km/h 10.5mph /  16.9km/h 81% 0in /  0.0mm
09:53 43.5 °F /  6.4 °C 38.3 °F /  3.5 °C 29.7in /  1005.0hPa SSE 5.6mph /  9.0km/h 10.5mph /  16.9km/h 82% 0in /  0.0mm
09:58 43.5 °F /  6.4 °C 38.1 °F /  3.4 °C 29.7in /  1005.0hPa ESE 6.3mph /  10.1km/h 10.7mph /  17.2km/h 81% 0in /  0.0mm
10:03 43.9 °F /  6.6 °C 38.5 °F /  3.6 °C 29.7in /  1005.0hPa SSE 11mph /  17.7km/h 11mph /  17.7km/h 81% 0in /  0.0mm
10:08 44.1 °F /  6.7 °C 38.5 °F /  3.6 °C 29.6in /  1003.9hPa SSE 6.5mph /  10.5km/h 11mph /  17.7km/h 81% 0in /  0.0mm
10:13 44.2 °F /  6.8 °C 38.7 °F /  3.7 °C 29.6in /  1003.9hPa SE 6.5mph /  10.5km/h 11mph /  17.7km/h 81% 0in /  0.0mm
10:18 44.2 °F /  6.8 °C 39 °F /  3.9 °C 29.6in /  1003.9hPa SSE 10.1mph /  16.3km/h 10.3mph /  16.6km/h 82% 0in /  0.0mm
10:23 44.2 °F /  6.8 °C 39 °F /  3.9 °C 29.6in /  1003.9hPa SSE 8.7mph /  14.0km/h 11mph /  17.7km/h 82% 0in /  0.0mm
10:28 44.2 °F /  6.8 °C 39.2 °F /  4.0 °C 29.6in /  1003.9hPa SE 6.3mph /  10.1km/h 13.2mph /  21.2km/h 82% 0in /  0.0mm
10:34 44.2 °F /  6.8 °C 39.2 °F /  4.0 °C 29.6in /  1003.9hPa South 6.5mph /  10.5km/h 13.2mph /  21.2km/h 82% 0in /  0.0mm
10:39 44.2 °F /  6.8 °C 39.2 °F /  4.0 °C 29.6in /  1002.9hPa SSE 7.8mph /  12.6km/h 11.4mph /  18.3km/h 82% 0in /  0.0mm
10:44 44.2 °F /  6.8 °C 39.2 °F /  4.0 °C 29.6in /  1002.9hPa SSE 5.8mph /  9.3km/h 11mph /  17.7km/h 82% 0in /  0.0mm
10:49 44.2 °F /  6.8 °C 39.2 °F /  4.0 °C 29.6in /  1002.9hPa SE 6.3mph /  10.1km/h 11mph /  17.7km/h 82% 0in /  0.0mm
10:54 44.2 °F /  6.8 °C 39.2 °F /  4.0 °C 29.6in /  1002.9hPa SE 4.5mph /  7.2km/h 11mph /  17.7km/h 82% 0in /  0.0mm
10:59 44.2 °F /  6.8 °C 39.4 °F /  4.1 °C 29.6in /  1002.9hPa SSE 4.7mph /  7.6km/h 10.3mph /  16.6km/h 83% 0in /  0.0mm
11:04 44.2 °F /  6.8 °C 39.4 °F /  4.1 °C 29.6in /  1002.9hPa SSE 6mph /  9.7km/h 10.3mph /  16.6km/h 83% 0in /  0.0mm
11:09 44.2 °F /  6.8 °C 39.4 °F /  4.1 °C 29.6in /  1002.9hPa SSW 7.4mph /  11.9km/h 11mph /  17.7km/h 83% 0in /  0.0mm
11:14 44.2 °F /  6.8 °C 39.6 °F /  4.2 °C 29.6in /  1002.9hPa SSE 5.6mph /  9.0km/h 11mph /  17.7km/h 83% 0in /  0.0mm
11:19 44.2 °F /  6.8 °C 39.6 °F /  4.2 °C 29.6in /  1002.9hPa SSE 3.6mph /  5.8km/h 8.5mph /  13.7km/h 83% 0in /  0.0mm
11:23 44.2 °F /  6.8 °C 39.4 °F /  4.1 °C 29.6in /  1001.9hPa South 2.5mph /  4.0km/h 8.5mph /  13.7km/h 83% 0.01in /  0.3mm
11:29 44.1 °F /  6.7 °C 39.6 °F /  4.2 °C 29.6in /  1001.9hPa SSE 4mph /  6.4km/h 4.9mph /  7.9km/h 84% 0.01in /  0.3mm
11:34 44.1 °F /  6.7 °C 39.7 °F /  4.3 °C 29.6in /  1001.9hPa SE 5.4mph /  8.7km/h 9.8mph /  15.8km/h 85% 0.03in /  0.8mm
11:38 43.9 °F /  6.6 °C 39.9 °F /  4.4 °C 29.6in /  1002.9hPa ESE 3.1mph /  5.0km/h 9.8mph /  15.8km/h 86% 0.05in /  1.3mm
11:44 43.5 °F /  6.4 °C 39.9 °F /  4.4 °C 29.6in /  1002.9hPa SE 5.6mph /  9.0km/h 9.8mph /  15.8km/h 87% 0.06in /  1.5mm
11:48 43.5 °F /  6.4 °C 39.9 °F /  4.4 °C 29.6in /  1002.9hPa Calm   6mph /  9.7km/h 87% 0.06in /  1.5mm
11:53 43.9 °F /  6.6 °C 40.5 °F /  4.7 °C 29.6in /  1001.9hPa SE 3.6mph /  5.8km/h 5.6mph /  9.0km/h 88% 0.06in /  1.5mm
11:59 44.2 °F /  6.8 °C 41.2 °F /  5.1 °C 29.6in /  1001.9hPa SE 5.6mph /  9.0km/h 5.8mph /  9.3km/h 89% 0.06in /  1.5mm
12:03 44.4 °F /  6.9 °C 41.7 °F /  5.4 °C 29.6in /  1001.9hPa ESE 5.4mph /  8.7km/h 6.5mph /  10.5km/h 90% 0.06in /  1.5mm
12:08 45.1 °F /  7.3 °C 42.8 °F /  6.0 °C 29.6in /  1001.9hPa SE 4mph /  6.4km/h 7.6mph /  12.2km/h 91% 0.06in /  1.5mm
12:14 45.9 °F /  7.7 °C 43.3 °F /  6.3 °C 29.6in /  1001.9hPa SE 4.3mph /  6.9km/h 7.6mph /  12.2km/h 91% 0.06in /  1.5mm
12:18 46 °F /  7.8 °C 43.3 °F /  6.3 °C 29.6in /  1001.9hPa ESE 5.8mph /  9.3km/h 6.5mph /  10.5km/h 90% 0.06in /  1.5mm
12:23 46.2 °F /  7.9 °C 43.5 °F /  6.4 °C 29.6in /  1001.9hPa SE 3.6mph /  5.8km/h 7.6mph /  12.2km/h 90% 0.04in /  1.0mm
12:28 46.6 °F /  8.1 °C 43.3 °F /  6.3 °C 29.6in /  1001.9hPa SE 6.5mph /  10.5km/h 8.1mph /  13.0km/h 89% 0.04in /  1.0mm
12:33 46.8 °F /  8.2 °C 43.7 °F /  6.5 °C 29.6in /  1001.9hPa SE 6.3mph /  10.1km/h 8.1mph /  13.0km/h 89% 0.02in /  0.5mm
12:38 47.1 °F /  8.4 °C 43.9 °F /  6.6 °C 29.6in /  1000.9hPa SSE 5.4mph /  8.7km/h 7.6mph /  12.2km/h 88% 0.01in /  0.3mm
12:43 47.5 °F /  8.6 °C 43.9 °F /  6.6 °C 29.6in /  1000.9hPa SSE 4.3mph /  6.9km/h 8.7mph /  14.0km/h 87% 0in /  0.0mm
12:48 47.5 °F /  8.6 °C 43.5 °F /  6.4 °C 29.6in /  1000.9hPa SSE 10.7mph /  17.2km/h 10.7mph /  17.2km/h 86% 0in /  0.0mm
12:53 47.5 °F /  8.6 °C 43.5 °F /  6.4 °C 29.5in /  999.9hPa South 5.8mph /  9.3km/h 10.7mph /  17.2km/h 86% 0in /  0.0mm
12:58 47.7 °F /  8.7 °C 43.7 °F /  6.5 °C 29.5in /  999.9hPa SSE 4.9mph /  7.9km/h 8.5mph /  13.7km/h 86% 0in /  0.0mm
13:04 48.2 °F /  9.0 °C 43.9 °F /  6.6 °C 29.5in /  999.9hPa South 7.6mph /  12.2km/h 8.5mph /  13.7km/h 85% 0in /  0.0mm
13:09 48.7 °F /  9.3 °C 44.4 °F /  6.9 °C 29.6in /  1000.9hPa SSE 2.9mph /  4.7km/h 8.5mph /  13.7km/h 85% 0in /  0.0mm
13:13 49.1 °F /  9.5 °C 44.8 °F /  7.1 °C 29.6in /  1000.9hPa SE 4mph /  6.4km/h 6.5mph /  10.5km/h 85% 0in /  0.0mm
13:18 49.5 °F /  9.7 °C 44.8 °F /  7.1 °C 29.6in /  1000.9hPa SSE 6mph /  9.7km/h 9.2mph /  14.8km/h 84% 0in /  0.0mm
13:24 49.8 °F /  9.9 °C 45 °F /  7.2 °C 29.6in /  1000.9hPa SSE 6.5mph /  10.5km/h 9.2mph /  14.8km/h 83% 0in /  0.0mm
13:28 50 °F /  10.0 °C 45 °F /  7.2 °C 29.6in /  1000.9hPa SE 6.7mph /  10.8km/h 7.4mph /  11.9km/h 83% 0in /  0.0mm
13:33 50.4 °F /  10.2 °C 45.1 °F /  7.3 °C 29.6in /  1000.9hPa SSE 6.3mph /  10.1km/h 7.4mph /  11.9km/h 82% 0in /  0.0mm
13:38 50.7 °F /  10.4 °C 45.1 °F /  7.3 °C 29.5in /  998.9hPa SSE 5.8mph /  9.3km/h 7.8mph /  12.6km/h 81% 0in /  0.0mm
13:43 50.7 °F /  10.4 °C 44.8 °F /  7.1 °C 29.5in /  998.9hPa South 6.7mph /  10.8km/h 7.8mph /  12.6km/h 80% 0in /  0.0mm
13:48 50.5 °F /  10.3 °C 43.9 °F /  6.6 °C 29.5in /  998.9hPa SSE 4.5mph /  7.2km/h 8.5mph /  13.7km/h 78% 0in /  0.0mm
13:53 50.5 °F /  10.3 °C 43.9 °F /  6.6 °C 29.5in /  998.9hPa South 6.7mph /  10.8km/h 8.5mph /  13.7km/h 78% 0in /  0.0mm
13:58 50.4 °F /  10.2 °C 43.3 °F /  6.3 °C 29.5in /  998.9hPa SSE 5.6mph /  9.0km/h 8.5mph /  13.7km/h 77% 0in /  0.0mm
14:03 50.5 °F /  10.3 °C 43.5 °F /  6.4 °C 29.5in /  998.9hPa SE 10.5mph /  16.9km/h 10.5mph /  16.9km/h 77% 0in /  0.0mm
14:04 50.5 °F /  10.3 °C 43.2 °F /  6.2 °C 29.5in /  998.9hPa SE 7.4mph /  11.9km/h 10.5mph /  16.9km/h 76% 0in /  0.0mm
14:09 51.1 °F /  10.6 °C 44.4 °F /  6.9 °C 29.5in /  998.9hPa South 4mph /  6.4km/h 10.5mph /  16.9km/h 78% 0in /  0.0mm
14:14 51.3 °F /  10.7 °C 44.2 °F /  6.8 °C 29.5in /  998.9hPa South 5.8mph /  9.3km/h 8.7mph /  14.0km/h 77% 0in /  0.0mm
14:19 51.3 °F /  10.7 °C 43.9 °F /  6.6 °C 29.5in /  998.9hPa South 5.4mph /  8.7km/h 8.9mph /  14.3km/h 76% 0in /  0.0mm
14:24 51.3 °F /  10.7 °C 43.9 °F /  6.6 °C 29.5in /  998.9hPa SSE 5.4mph /  8.7km/h 8.9mph /  14.3km/h 76% 0in /  0.0mm
14:29 51.3 °F /  10.7 °C 43.9 °F /  6.6 °C 29.5in /  998.9hPa SSE 5.6mph /  9.0km/h 8.5mph /  13.7km/h 76% 0in /  0.0mm
14:34 51.1 °F /  10.6 °C 43.7 °F /  6.5 °C 29.5in /  998.9hPa SE 2.9mph /  4.7km/h 9.8mph /  15.8km/h 76% 0in /  0.0mm
14:39 51.1 °F /  10.6 °C 43.7 °F /  6.5 °C 29.5in /  998.9hPa ESE 6mph /  9.7km/h 9.8mph /  15.8km/h 76% 0in /  0.0mm
14:44 51.3 °F /  10.7 °C 43.9 °F /  6.6 °C 29.5in /  998.9hPa South 4.3mph /  6.9km/h 7.4mph /  11.9km/h 76% 0in /  0.0mm
14:49 51.4 °F /  10.8 °C 44.1 °F /  6.7 °C 29.5in /  998.9hPa SSE 5.6mph /  9.0km/h 10.5mph /  16.9km/h 76% 0in /  0.0mm
14:54 51.6 °F /  10.9 °C 44.2 °F /  6.8 °C 29.5in /  997.9hPa SE 3.6mph /  5.8km/h 10.5mph /  16.9km/h 76% 0in /  0.0mm
14:59 52 °F /  11.1 °C 45 °F /  7.2 °C 29.5in /  997.9hPa SSE 2.5mph /  4.0km/h 7.8mph /  12.6km/h 77% 0in /  0.0mm
15:04 52.2 °F /  11.2 °C 44.8 °F /  7.1 °C 29.5in /  997.9hPa SSE 5.6mph /  9.0km/h 8.5mph /  13.7km/h 76% 0in /  0.0mm
15:09 52.2 °F /  11.2 °C 44.8 °F /  7.1 °C 29.5in /  997.9hPa SSE 6mph /  9.7km/h 10.1mph /  16.3km/h 76% 0in /  0.0mm
15:14 52.3 °F /  11.3 °C 45 °F /  7.2 °C 29.5in /  997.9hPa South 6.5mph /  10.5km/h 10.1mph /  16.3km/h 76% 0in /  0.0mm
15:19 52.5 °F /  11.4 °C 44.8 °F /  7.1 °C 29.5in /  997.9hPa SSE 3.8mph /  6.1km/h 10.5mph /  16.9km/h 75% 0in /  0.0mm
15:24 52.5 °F /  11.4 °C 44.8 °F /  7.1 °C 29.5in /  997.9hPa South 6.7mph /  10.8km/h 10.5mph /  16.9km/h 75% 0in /  0.0mm
15:29 52.5 °F /  11.4 °C 44.8 °F /  7.1 °C 29.5in /  997.9hPa SSE 7.2mph /  11.6km/h 11mph /  17.7km/h 75% 0in /  0.0mm
15:34 52.5 °F /  11.4 °C 44.4 °F /  6.9 °C 29.5in /  997.9hPa SSE 7.8mph /  12.6km/h 11mph /  17.7km/h 74% 0in /  0.0mm
15:39 52.5 °F /  11.4 °C 44.6 °F /  7.0 °C 29.5in /  997.9hPa SSE 5.6mph /  9.0km/h 11mph /  17.7km/h 74% 0in /  0.0mm
15:44 52.9 °F /  11.6 °C 44.8 °F /  7.1 °C 29.5in /  997.9hPa SSE 8.7mph /  14.0km/h 11mph /  17.7km/h 74% 0in /  0.0mm
15:49 53.1 °F /  11.7 °C 45.3 °F /  7.4 °C 29.5in /  997.9hPa South 3.6mph /  5.8km/h 9.6mph /  15.4km/h 75% 0in /  0.0mm
15:54 53.2 °F /  11.8 °C 45.1 °F /  7.3 °C 29.4in /  996.8hPa SSE 5.4mph /  8.7km/h 9.4mph /  15.1km/h 74% 0in /  0.0mm
15:59 53.2 °F /  11.8 °C 45.3 °F /  7.4 °C 29.4in /  996.8hPa SSE 8.5mph /  13.7km/h 10.3mph /  16.6km/h 74% 0in /  0.0mm
16:04 53.4 °F /  11.9 °C 45.3 °F /  7.4 °C 29.4in /  996.8hPa SSW 7.2mph /  11.6km/h 10.3mph /  16.6km/h 74% 0in /  0.0mm
16:09 54 °F /  12.2 °C 45.3 °F /  7.4 °C 29.4in /  996.8hPa South 10.5mph /  16.9km/h 12.8mph /  20.6km/h 73% 0in /  0.0mm
16:14 54 °F /  12.2 °C 45.1 °F /  7.3 °C 29.4in /  996.8hPa South 6mph /  9.7km/h 12.8mph /  20.6km/h 72% 0in /  0.0mm
16:19 54 °F /  12.2 °C 45.7 °F /  7.6 °C 29.4in /  996.8hPa SSE 7.4mph /  11.9km/h 11.9mph /  19.1km/h 73% 0in /  0.0mm
16:24 54 °F /  12.2 °C 45.1 °F /  7.3 °C 29.4in /  996.8hPa SSE 6.3mph /  10.1km/h 10.7mph /  17.2km/h 72% 0in /  0.0mm
16:29 54 °F /  12.2 °C 45.1 °F /  7.3 °C 29.4in /  996.8hPa SSE 8.7mph /  14.0km/h 14.8mph /  23.8km/h 72% 0in /  0.0mm
16:30 54 °F /  12.2 °C 45.1 °F /  7.3 °C 29.4in /  996.8hPa SSE 10.7mph /  17.2km/h 14.8mph /  23.8km/h 72% 0in /  0.0mm
16:35 54 °F /  12.2 °C 45.1 °F /  7.3 °C 29.4in /  996.8hPa SSE 5.6mph /  9.0km/h 14.8mph /  23.8km/h 72% 0in /  0.0mm
16:40 54 °F /  12.2 °C 45.1 °F /  7.3 °C 29.4in /  996.8hPa SSE 10.1mph /  16.3km/h 13.2mph /  21.2km/h 72% 0in /  0.0mm
16:50 53.8 °F /  12.1 °C 45 °F /  7.2 °C 29.4in /  996.8hPa SSE 6.5mph /  10.5km/h 12.1mph /  19.5km/h 72% 0in /  0.0mm
16:55 53.8 °F /  12.1 °C 45 °F /  7.2 °C 29.4in /  996.8hPa South 7.6mph /  12.2km/h 12.1mph /  19.5km/h 72% 0in /  0.0mm
17:00 53.8 °F /  12.1 °C 45 °F /  7.2 °C 29.4in /  996.8hPa SSE 8.1mph /  13.0km/h 12.5mph /  20.1km/h 72% 0in /  0.0mm
17:05 53.4 °F /  11.9 °C 44.8 °F /  7.1 °C 29.4in /  996.8hPa South 6mph /  9.7km/h 12.5mph /  20.1km/h 72% 0in /  0.0mm
17:10 53.2 °F /  11.8 °C 45 °F /  7.2 °C 29.4in /  996.8hPa South 6mph /  9.7km/h 11.4mph /  18.3km/h 73% 0in /  0.0mm
17:15 53.2 °F /  11.8 °C 44.8 °F /  7.1 °C 29.4in /  996.8hPa SSE 7.6mph /  12.2km/h 14.8mph /  23.8km/h 73% 0in /  0.0mm
17:20 53.2 °F /  11.8 °C 44.8 °F /  7.1 °C 29.4in /  996.8hPa SSE 10.3mph /  16.6km/h 14.8mph /  23.8km/h 73% 0in /  0.0mm
17:25 53.1 °F /  11.7 °C 45 °F /  7.2 °C 29.4in /  996.2hPa South 6.5mph /  10.5km/h 13mph /  20.9km/h 74% 0in /  0.0mm
17:30 53.1 °F /  11.7 °C 45 °F /  7.2 °C 29.4in /  996.2hPa South 4.9mph /  7.9km/h 11.2mph /  18.0km/h 74% 0in /  0.0mm
17:35 52.9 °F /  11.6 °C 44.8 °F /  7.1 °C 29.4in /  996.2hPa SSE 6.5mph /  10.5km/h 12.8mph /  20.6km/h 74% 0in /  0.0mm
17:40 52.5 °F /  11.4 °C 44.6 °F /  7.0 °C 29.4in /  996.2hPa SE 6.3mph /  10.1km/h 12.8mph /  20.6km/h 74% 0in /  0.0mm
17:45 52.5 °F /  11.4 °C 44.6 °F /  7.0 °C 29.4in /  996.2hPa SSE 6.5mph /  10.5km/h 10.1mph /  16.3km/h 74% 0in /  0.0mm
17:50 52.5 °F /  11.4 °C 45 °F /  7.2 °C 29.4in /  996.2hPa South 3.6mph /  5.8km/h 10.1mph /  16.3km/h 75% 0in /  0.0mm
17:55 52.5 °F /  11.4 °C 45 °F /  7.2 °C 29.4in /  996.2hPa South 5.6mph /  9.0km/h 10.7mph /  17.2km/h 75% 0in /  0.0mm
18:00 52.5 °F /  11.4 °C 44.8 °F /  7.1 °C 29.4in /  996.2hPa South 6mph /  9.7km/h 10.7mph /  17.2km/h 75% 0in /  0.0mm
18:05 52.5 °F /  11.4 °C 44.8 °F /  7.1 °C 29.4in /  996.2hPa South 5.6mph /  9.0km/h 11mph /  17.7km/h 75% 0in /  0.0mm
18:10 52.5 °F /  11.4 °C 44.8 °F /  7.1 °C 29.4in /  995.1hPa South 8.5mph /  13.7km/h 13.2mph /  21.2km/h 75% 0in /  0.0mm
18:15 52.3 °F /  11.3 °C 45 °F /  7.2 °C 29.4in /  995.1hPa South 4.3mph /  6.9km/h 13.2mph /  21.2km/h 76% 0in /  0.0mm
18:17 52.3 °F /  11.3 °C 45 °F /  7.2 °C 29.4in /  995.1hPa South 5.8mph /  9.3km/h 11mph /  17.7km/h 76% 0in /  0.0mm
18:22 52.3 °F /  11.3 °C 45 °F /  7.2 °C 29.4in /  995.1hPa SSE 8.7mph /  14.0km/h 12.3mph /  19.8km/h 76% 0in /  0.0mm
18:27 52.3 °F /  11.3 °C 45 °F /  7.2 °C 29.4in /  996.2hPa SSE 7.2mph /  11.6km/h 12.3mph /  19.8km/h 76% 0in /  0.0mm
18:32 52.2 °F /  11.2 °C 45.1 °F /  7.3 °C 29.4in /  996.2hPa SSW 5.6mph /  9.0km/h 10.7mph /  17.2km/h 77% 0in /  0.0mm
18:37 52.2 °F /  11.2 °C 45.1 °F /  7.3 °C 29.4in /  996.2hPa SSW 7.2mph /  11.6km/h 13mph /  20.9km/h 77% 0in /  0.0mm
18:42 52.2 °F /  11.2 °C 45.1 °F /  7.3 °C 29.4in /  996.2hPa SSW 5.8mph /  9.3km/h 13mph /  20.9km/h 77% 0in /  0.0mm
18:47 52.2 °F /  11.2 °C 45.1 °F /  7.3 °C 29.4in /  996.2hPa SSE 5.6mph /  9.0km/h 10.1mph /  16.3km/h 77% 0in /  0.0mm
18:52 52.2 °F /  11.2 °C 45.1 °F /  7.3 °C 29.4in /  996.2hPa SE 4.3mph /  6.9km/h 10.1mph /  16.3km/h 77% 0in /  0.0mm
18:57 52.2 °F /  11.2 °C 45.1 °F /  7.3 °C 29.4in /  995.1hPa South 6.3mph /  10.1km/h 11mph /  17.7km/h 77% 0in /  0.0mm
19:02 52.2 °F /  11.2 °C 45.1 °F /  7.3 °C 29.4in /  995.1hPa SSW 3.6mph /  5.8km/h 11mph /  17.7km/h 77% 0in /  0.0mm
19:07 52.2 °F /  11.2 °C 45.1 °F /  7.3 °C 29.4in /  995.1hPa SSE 10.1mph /  16.3km/h 10.1mph /  16.3km/h 77% 0in /  0.0mm
19:12 52.2 °F /  11.2 °C 45.1 °F /  7.3 °C 29.4in /  995.1hPa South 6.3mph /  10.1km/h 12.3mph /  19.8km/h 77% 0in /  0.0mm
19:17 52.2 °F /  11.2 °C 45.1 °F /  7.3 °C 29.4in /  995.1hPa SW 8.7mph /  14.0km/h 12.3mph /  19.8km/h 77% 0in /  0.0mm
19:22 52.2 °F /  11.2 °C 45.1 °F /  7.3 °C 29.4in /  995.1hPa SSW 7.6mph /  12.2km/h 11.9mph /  19.1km/h 77% 0in /  0.0mm
19:27 52.2 °F /  11.2 °C 45.1 °F /  7.3 °C 29.4in /  995.1hPa SSE 4.9mph /  7.9km/h 9.6mph /  15.4km/h 77% 0in /  0.0mm
19:32 52.2 °F /  11.2 °C 45.1 °F /  7.3 °C 29.4in /  995.1hPa South 5.8mph /  9.3km/h 8.5mph /  13.7km/h 77% 0in /  0.0mm
19:37 52.2 °F /  11.2 °C 45.1 °F /  7.3 °C 29.4in /  995.1hPa SSW 7.2mph /  11.6km/h 8.5mph /  13.7km/h 77% 0in /  0.0mm
19:42 52 °F /  11.1 °C 45 °F /  7.2 °C 29.4in /  994.1hPa WSW 5.4mph /  8.7km/h 9.6mph /  15.4km/h 77% 0in /  0.0mm
19:47 52 °F /  11.1 °C 45.3 °F /  7.4 °C 29.4in /  994.1hPa South 6mph /  9.7km/h 9.6mph /  15.4km/h 78% 0in /  0.0mm
19:52 51.8 °F /  11.0 °C 45.1 °F /  7.3 °C 29.4in /  994.1hPa South 7.8mph /  12.6km/h 9.4mph /  15.1km/h 78% 0in /  0.0mm
19:57 51.8 °F /  11.0 °C 45.1 °F /  7.3 °C 29.4in /  995.1hPa South 7.4mph /  11.9km/h 9.2mph /  14.8km/h 78% 0in /  0.0mm
20:02 51.8 °F /  11.0 °C 45.1 °F /  7.3 °C 29.4in /  995.1hPa South 6.5mph /  10.5km/h 9.2mph /  14.8km/h 78% 0in /  0.0mm
20:07 51.8 °F /  11.0 °C 45.1 °F /  7.3 °C 29.4in /  995.1hPa SSE 4mph /  6.4km/h 12.3mph /  19.8km/h 78% 0in /  0.0mm
20:12 52 °F /  11.1 °C 45.7 °F /  7.6 °C 29.4in /  995.1hPa South 4.3mph /  6.9km/h 12.3mph /  19.8km/h 79% 0in /  0.0mm
20:17 52 °F /  11.1 °C 45.3 °F /  7.4 °C 29.4in /  995.1hPa South 8.5mph /  13.7km/h 13.2mph /  21.2km/h 78% 0in /  0.0mm
20:22 51.8 °F /  11.0 °C 45.1 °F /  7.3 °C 29.4in /  995.1hPa South 5.4mph /  8.7km/h 13.2mph /  21.2km/h 78% 0in /  0.0mm
20:27 51.8 °F /  11.0 °C 45.5 °F /  7.5 °C 29.4in /  995.1hPa SSW 4.9mph /  7.9km/h 11mph /  17.7km/h 79% 0in /  0.0mm
20:32 51.8 °F /  11.0 °C 45.5 °F /  7.5 °C 29.4in /  995.1hPa South 7.2mph /  11.6km/h 12.3mph /  19.8km/h 79% 0in /  0.0mm
20:37 51.8 °F /  11.0 °C 45.5 °F /  7.5 °C 29.4in /  994.1hPa SSE 7.6mph /  12.2km/h 12.3mph /  19.8km/h 79% 0in /  0.0mm
20:42 51.8 °F /  11.0 °C 45.5 °F /  7.5 °C 29.4in /  994.1hPa South 9.8mph /  15.8km/h 11mph /  17.7km/h 79% 0in /  0.0mm
20:47 51.8 °F /  11.0 °C 45.5 °F /  7.5 °C 29.4in /  994.1hPa SSE 9.8mph /  15.8km/h 10.5mph /  16.9km/h 79% 0in /  0.0mm
20:52 51.8 °F /  11.0 °C 45.5 °F /  7.5 °C 29.4in /  994.1hPa SSE 6.3mph /  10.1km/h 10.1mph /  16.3km/h 79% 0in /  0.0mm
20:57 51.6 °F /  10.9 °C 45.3 °F /  7.4 °C 29.4in /  994.1hPa SSE 8.5mph /  13.7km/h 10.7mph /  17.2km/h 79% 0in /  0.0mm
21:02 51.6 °F /  10.9 °C 45.3 °F /  7.4 °C 29.4in /  994.1hPa SSE 6.3mph /  10.1km/h 12.8mph /  20.6km/h 79% 0in /  0.0mm
21:07 51.6 °F /  10.9 °C 45.7 °F /  7.6 °C 29.4in /  994.1hPa South 5.6mph /  9.0km/h 13mph /  20.9km/h 80% 0in /  0.0mm
21:12 51.3 °F /  10.7 °C 45.3 °F /  7.4 °C 29.4in /  994.1hPa SSW 7.6mph /  12.2km/h 13mph /  20.9km/h 80% 0in /  0.0mm
21:17 51.3 °F /  10.7 °C 45.3 °F /  7.4 °C 29.4in /  994.1hPa SSW 4mph /  6.4km/h 8.7mph /  14.0km/h 80% 0in /  0.0mm
21:22 51.1 °F /  10.6 °C 45.3 °F /  7.4 °C 29.4in /  994.1hPa South 4.3mph /  6.9km/h 9.6mph /  15.4km/h 81% 0in /  0.0mm
21:27 50.9 °F /  10.5 °C 45.3 °F /  7.4 °C 29.4in /  994.1hPa South 5.6mph /  9.0km/h 11mph /  17.7km/h 81% 0in /  0.0mm
21:32 50.7 °F /  10.4 °C 45.1 °F /  7.3 °C 29.4in /  994.1hPa South 5.4mph /  8.7km/h 11mph /  17.7km/h 81% 0in /  0.0mm
21:37 50.7 °F /  10.4 °C 45.3 °F /  7.4 °C 29.4in /  994.1hPa SSE 4.9mph /  7.9km/h 8.1mph /  13.0km/h 82% 0in /  0.0mm
21:42 50.5 °F /  10.3 °C 45.1 °F /  7.3 °C 29.4in /  994.1hPa SSE 4.9mph /  7.9km/h 7.8mph /  12.6km/h 82% 0in /  0.0mm
21:47 50.5 °F /  10.3 °C 45.1 °F /  7.3 °C 29.4in /  994.1hPa SSE 2.7mph /  4.3km/h 8.1mph /  13.0km/h 82% 0in /  0.0mm
21:52 50.5 °F /  10.3 °C 45.1 °F /  7.3 °C 29.4in /  994.1hPa SSE 3.6mph /  5.8km/h 8.1mph /  13.0km/h 82% 0in /  0.0mm
21:57 50.5 °F /  10.3 °C 45.7 °F /  7.6 °C 29.4in /  994.1hPa SSE 3.4mph /  5.5km/h 8.7mph /  14.0km/h 83% 0in /  0.0mm
22:02 50.5 °F /  10.3 °C 45.7 °F /  7.6 °C 29.4in /  994.1hPa South 4.7mph /  7.6km/h 9.8mph /  15.8km/h 83% 0in /  0.0mm
22:07 50.7 °F /  10.4 °C 45.7 °F /  7.6 °C 29.3in /  993.1hPa SSE 3.1mph /  5.0km/h 9.8mph /  15.8km/h 83% 0in /  0.0mm
22:12 50.9 °F /  10.5 °C 45.9 °F /  7.7 °C 29.3in /  993.1hPa South 5.8mph /  9.3km/h 7.8mph /  12.6km/h 83% 0in /  0.0mm
22:17 50.9 °F /  10.5 °C 46.2 °F /  7.9 °C 29.3in /  993.1hPa SSE 7.8mph /  12.6km/h 7.8mph /  12.6km/h 84% 0in /  0.0mm
22:22 51.1 °F /  10.6 °C 46.4 °F /  8.0 °C 29.3in /  992.1hPa SSE 8.7mph /  14.0km/h 10.5mph /  16.9km/h 84% 0in /  0.0mm
22:27 51.1 °F /  10.6 °C 46.4 °F /  8.0 °C 29.3in /  992.1hPa SSE 5.6mph /  9.0km/h 10.5mph /  16.9km/h 84% 0in /  0.0mm
22:32 51.1 °F /  10.6 °C 46 °F /  7.8 °C 29.3in /  992.1hPa SSE 3.6mph /  5.8km/h 9.2mph /  14.8km/h 83% 0in /  0.0mm
22:37 51.1 °F /  10.6 °C 46 °F /  7.8 °C 29.3in /  993.1hPa SSE 4.3mph /  6.9km/h 8.7mph /  14.0km/h 83% 0in /  0.0mm
22:42 51.1 °F /  10.6 °C 46 °F /  7.8 °C 29.3in /  993.1hPa SSE 4.3mph /  6.9km/h 9.6mph /  15.4km/h 83% 0in /  0.0mm
22:47 50.9 °F /  10.5 °C 45.9 °F /  7.7 °C 29.3in /  993.1hPa SSW 2.7mph /  4.3km/h 9.6mph /  15.4km/h 83% 0in /  0.0mm
22:52 50.9 °F /  10.5 °C 45.9 °F /  7.7 °C 29.3in /  993.1hPa South 4mph /  6.4km/h 5.6mph /  9.0km/h 83% 0in /  0.0mm
22:57 50.7 °F /  10.4 °C 45.7 °F /  7.6 °C 29.3in /  993.1hPa Calm   5.6mph /  9.0km/h 83% 0in /  0.0mm
23:02 50.4 °F /  10.2 °C 45.3 °F /  7.4 °C 29.3in /  993.1hPa Calm   2.5mph /  4.0km/h 83% 0in /  0.0mm
23:07 50.4 °F /  10.2 °C 45.3 °F /  7.4 °C 29.3in /  993.1hPa Calm   2.7mph /  4.3km/h 83% 0in /  0.0mm
23:12 50.5 °F /  10.3 °C 45.9 °F /  7.7 °C 29.3in /  993.1hPa Calm   2.7mph /  4.3km/h 84% 0in /  0.0mm
23:17 50.5 °F /  10.3 °C 45.9 °F /  7.7 °C 29.3in /  993.1hPa SSE 0.9mph /  1.4km/h 2.5mph /  4.0km/h 84% 0in /  0.0mm
23:22 50.5 °F /  10.3 °C 45.9 °F /  7.7 °C 29.3in /  993.1hPa SSE 1.3mph /  2.1km/h 4.5mph /  7.2km/h 84% 0in /  0.0mm
23:27 50.4 °F /  10.2 °C 45.7 °F /  7.6 °C 29.3in /  993.1hPa SSW 4.7mph /  7.6km/h 5.8mph /  9.3km/h 84% 0in /  0.0mm
23:32 50.5 °F /  10.3 °C 45.9 °F /  7.7 °C 29.3in /  993.1hPa South 4mph /  6.4km/h 8.1mph /  13.0km/h 84% 0in /  0.0mm
23:37 50.7 °F /  10.4 °C 46 °F /  7.8 °C 29.3in /  993.1hPa SSE 2.9mph /  4.7km/h 8.1mph /  13.0km/h 84% 0in /  0.0mm
23:42 50.7 °F /  10.4 °C 46 °F /  7.8 °C 29.3in /  993.1hPa SSE 1.6mph /  2.6km/h 6.3mph /  10.1km/h 84% 0in /  0.0mm
23:47 50.5 °F /  10.3 °C 45.9 °F /  7.7 °C 29.3in /  993.1hPa South 6.3mph /  10.1km/h 6.3mph /  10.1km/h 84% 0in /  0.0mm
23:53 50.7 °F /  10.4 °C 46 °F /  7.8 °C 29.3in /  993.1hPa SSW 5.8mph /  9.3km/h 7.6mph /  12.2km/h 84% 0in /  0.0mm
23:58 50.7 °F /  10.4 °C 46 °F /  7.8 °C 29.3in /  993.1hPa South 3.4mph /  5.5km/h 7.6mph /  12.2km/h 84% 0in /  0.0mm
Données Historique de Météo Turbie

Mise a jour : 24/05/2018 23:04:22
Généré par Cumulus 1.9.4 (1099)